sensor_id;sensor_type;location;lat;lon;timestamp;pressure;altitude;pressure_sealevel;temperature;humidity
8920;BME280;4495;42.644;23.274;2024-01-16T00:01:05;91493.56;;;-0.32;76.37
8920;BME280;4495;42.644;23.274;2024-01-16T00:03:31;91508.50;;;-0.25;77.63
8920;BME280;4495;42.644;23.274;2024-01-16T00:05:56;91509.63;;;-0.17;76.32
8920;BME280;4495;42.644;23.274;2024-01-16T00:08:22;91497.25;;;-0.24;77.07
8920;BME280;4495;42.644;23.274;2024-01-16T00:10:47;91507.84;;;-0.31;77.82
8920;BME280;4495;42.644;23.274;2024-01-16T00:13:13;91514.75;;;-0.17;77.90
8920;BME280;4495;42.644;23.274;2024-01-16T00:15:38;91505.31;;;-0.31;76.87
8920;BME280;4495;42.644;23.274;2024-01-16T00:18:07;91512.75;;;-0.21;75.62
8920;BME280;4495;42.644;23.274;2024-01-16T00:20:33;91515.38;;;-0.12;76.01
8920;BME280;4495;42.644;23.274;2024-01-16T00:22:59;91517.88;;;0.02;76.53
8920;BME280;4495;42.644;23.274;2024-01-16T00:25:24;91520.84;;;-0.05;76.80
8920;BME280;4495;42.644;23.274;2024-01-16T00:27:50;91526.34;;;0.03;76.84
8920;BME280;4495;42.644;23.274;2024-01-16T00:30:16;91513.31;;;0.13;76.34
8920;BME280;4495;42.644;23.274;2024-01-16T00:32:42;91525.06;;;0.14;76.69
8920;BME280;4495;42.644;23.274;2024-01-16T00:35:07;91540.16;;;0.02;76.88
8920;BME280;4495;42.644;23.274;2024-01-16T00:37:35;91527.25;;;0.07;75.98
8920;BME280;4495;42.644;23.274;2024-01-16T00:40:00;91530.28;;;0.09;77.37
8920;BME280;4495;42.644;23.274;2024-01-16T00:42:26;91541.38;;;0.04;77.83
8920;BME280;4495;42.644;23.274;2024-01-16T00:44:52;91564.34;;;0.18;74.64
8920;BME280;4495;42.644;23.274;2024-01-16T00:47:17;91537.94;;;0.23;73.86
8920;BME280;4495;42.644;23.274;2024-01-16T00:49:42;91530.81;;;0.19;73.10
8920;BME280;4495;42.644;23.274;2024-01-16T00:52:10;91540.88;;;0.16;73.65
8920;BME280;4495;42.644;23.274;2024-01-16T00:54:35;91557.59;;;0.22;74.77
8920;BME280;4495;42.644;23.274;2024-01-16T00:57:01;91564.00;;;0.33;74.43
8920;BME280;4495;42.644;23.274;2024-01-16T00:59:26;91554.78;;;0.24;73.04
8920;BME280;4495;42.644;23.274;2024-01-16T01:01:51;91549.72;;;0.32;74.64
8920;BME280;4495;42.644;23.274;2024-01-16T01:04:17;91547.97;;;0.41;75.29
8920;BME280;4495;42.644;23.274;2024-01-16T01:06:42;91566.50;;;0.61;73.90
8920;BME280;4495;42.644;23.274;2024-01-16T01:09:08;91556.88;;;0.67;72.78
8920;BME280;4495;42.644;23.274;2024-01-16T01:11:37;91575.66;;;0.85;74.30
8920;BME280;4495;42.644;23.274;2024-01-16T01:14:03;91568.78;;;0.94;72.58
8920;BME280;4495;42.644;23.274;2024-01-16T01:16:29;91561.56;;;0.96;73.30
8920;BME280;4495;42.644;23.274;2024-01-16T01:18:54;91573.91;;;0.94;73.67
8920;BME280;4495;42.644;23.274;2024-01-16T01:21:19;91566.47;;;0.83;74.48
8920;BME280;4495;42.644;23.274;2024-01-16T01:23:45;91582.34;;;0.94;73.96
8920;BME280;4495;42.644;23.274;2024-01-16T01:26:10;91559.75;;;0.88;75.53
8920;BME280;4495;42.644;23.274;2024-01-16T01:28:39;91579.81;;;0.94;75.26
8920;BME280;4495;42.644;23.274;2024-01-16T01:31:05;91576.06;;;1.00;73.94
8920;BME280;4495;42.644;23.274;2024-01-16T01:33:30;91560.59;;;1.06;75.76
8920;BME280;4495;42.644;23.274;2024-01-16T01:35:56;91565.31;;;1.21;75.96
8920;BME280;4495;42.644;23.274;2024-01-16T01:38:21;91561.19;;;1.11;77.54
8920;BME280;4495;42.644;23.274;2024-01-16T01:40:47;91556.53;;;1.13;77.25
8920;BME280;4495;42.644;23.274;2024-01-16T01:43:25;91536.06;;;1.13;79.84
8920;BME280;4495;42.644;23.274;2024-01-16T01:48:25;91539.28;;;0.96;82.63
8920;BME280;4495;42.644;23.274;2024-01-16T01:50:50;91541.03;;;1.18;83.58
8920;BME280;4495;42.644;23.274;2024-01-16T01:53:16;91535.81;;;1.81;84.77
8920;BME280;4495;42.644;23.274;2024-01-16T01:55:41;91534.59;;;1.78;81.64
8920;BME280;4495;42.644;23.274;2024-01-16T01:58:07;91546.03;;;1.63;81.59
8920;BME280;4495;42.644;23.274;2024-01-16T02:00:33;91539.13;;;1.64;82.73
8920;BME280;4495;42.644;23.274;2024-01-16T02:02:59;91563.56;;;1.39;81.88
8920;BME280;4495;42.644;23.274;2024-01-16T02:05:25;91541.38;;;1.25;82.82
8920;BME280;4495;42.644;23.274;2024-01-16T02:07:52;91570.78;;;1.28;80.48
8920;BME280;4495;42.644;23.274;2024-01-16T02:10:17;91556.13;;;1.20;83.24
8920;BME280;4495;42.644;23.274;2024-01-16T02:12:42;91558.47;;;1.08;83.07
8920;BME280;4495;42.644;23.274;2024-01-16T02:15:08;91549.47;;;1.10;83.69
8920;BME280;4495;42.644;23.274;2024-01-16T02:17:33;91558.81;;;1.15;83.50
8920;BME280;4495;42.644;23.274;2024-01-16T02:19:59;91553.59;;;1.29;83.52
8920;BME280;4495;42.644;23.274;2024-01-16T02:22:26;91555.31;;;1.42;86.09
8920;BME280;4495;42.644;23.274;2024-01-16T02:24:53;91556.78;;;1.34;84.86
8920;BME280;4495;42.644;23.274;2024-01-16T02:27:19;91563.94;;;1.46;85.48
8920;BME280;4495;42.644;23.274;2024-01-16T02:29:44;91577.06;;;1.53;87.40
8920;BME280;4495;42.644;23.274;2024-01-16T02:32:13;91565.25;;;1.92;85.79
8920;BME280;4495;42.644;23.274;2024-01-16T02:34:40;91563.00;;;1.99;85.54
8920;BME280;4495;42.644;23.274;2024-01-16T02:37:06;91566.72;;;3.24;82.42
8920;BME280;4495;42.644;23.274;2024-01-16T02:39:32;91559.75;;;3.24;79.66
8920;BME280;4495;42.644;23.274;2024-01-16T02:41:57;91579.16;;;2.96;80.12
8920;BME280;4495;42.644;23.274;2024-01-16T02:44:23;91565.91;;;2.50;81.10
8920;BME280;4495;42.644;23.274;2024-01-16T02:46:48;91571.94;;;2.19;80.16
8920;BME280;4495;42.644;23.274;2024-01-16T02:49:13;91587.28;;;1.93;80.65
8920;BME280;4495;42.644;23.274;2024-01-16T02:51:39;91613.69;;;1.94;79.95
8920;BME280;4495;42.644;23.274;2024-01-16T02:54:06;91609.81;;;1.65;81.83
8920;BME280;4495;42.644;23.274;2024-01-16T02:56:32;91646.09;;;1.58;81.00
8920;BME280;4495;42.644;23.274;2024-01-16T02:58:57;91656.78;;;1.52;82.45
8920;BME280;4495;42.644;23.274;2024-01-16T03:01:22;91684.44;;;1.41;81.40
8920;BME280;4495;42.644;23.274;2024-01-16T03:03:48;91680.03;;;1.33;80.92
8920;BME280;4495;42.644;23.274;2024-01-16T03:06:26;91693.75;;;1.14;82.14
8920;BME280;4495;42.644;23.274;2024-01-16T03:08:51;91699.00;;;1.09;81.55
8920;BME280;4495;42.644;23.274;2024-01-16T03:11:17;91703.66;;;1.07;83.90
8920;BME280;4495;42.644;23.274;2024-01-16T03:13:43;91709.84;;;1.06;82.57
8920;BME280;4495;42.644;23.274;2024-01-16T03:16:10;91721.09;;;1.19;84.86
8920;BME280;4495;42.644;23.274;2024-01-16T03:18:36;91727.44;;;1.44;85.63
8920;BME280;4495;42.644;23.274;2024-01-16T03:21:02;91737.91;;;1.56;84.44
8920;BME280;4495;42.644;23.274;2024-01-16T03:23:28;91734.13;;;1.54;86.40
8920;BME280;4495;42.644;23.274;2024-01-16T03:25:54;91739.75;;;1.64;87.61
8920;BME280;4495;42.644;23.274;2024-01-16T03:28:19;91748.31;;;1.60;86.41
8920;BME280;4495;42.644;23.274;2024-01-16T03:30:46;91757.22;;;1.62;86.93
8920;BME280;4495;42.644;23.274;2024-01-16T03:33:11;91770.63;;;1.59;87.90
8920;BME280;4495;42.644;23.274;2024-01-16T03:35:37;91754.44;;;1.50;87.69
8920;BME280;4495;42.644;23.274;2024-01-16T03:38:02;91778.66;;;1.44;88.78
8920;BME280;4495;42.644;23.274;2024-01-16T03:40:28;91768.63;;;1.34;89.09
8920;BME280;4495;42.644;23.274;2024-01-16T03:42:53;91767.69;;;1.30;89.98
8920;BME280;4495;42.644;23.274;2024-01-16T03:45:19;91781.97;;;1.22;89.89
8920;BME280;4495;42.644;23.274;2024-01-16T03:47:45;91790.03;;;1.15;88.87
8920;BME280;4495;42.644;23.274;2024-01-16T03:50:10;91797.28;;;0.99;89.29
8920;BME280;4495;42.644;23.274;2024-01-16T03:52:36;91794.63;;;1.04;89.20
8920;BME280;4495;42.644;23.274;2024-01-16T03:55:01;91794.91;;;0.89;89.31
8920;BME280;4495;42.644;23.274;2024-01-16T03:57:27;91812.09;;;0.89;90.44
8920;BME280;4495;42.644;23.274;2024-01-16T03:59:52;91813.06;;;0.79;89.34
8920;BME280;4495;42.644;23.274;2024-01-16T04:02:17;91823.69;;;0.72;90.78
8920;BME280;4495;42.644;23.274;2024-01-16T04:04:43;91826.88;;;0.78;89.92
8920;BME280;4495;42.644;23.274;2024-01-16T04:07:08;91830.97;;;0.79;89.23
8920;BME280;4495;42.644;23.274;2024-01-16T04:09:34;91839.13;;;0.81;89.67
8920;BME280;4495;42.644;23.274;2024-01-16T04:12:00;91849.63;;;0.79;89.81
8920;BME280;4495;42.644;23.274;2024-01-16T04:14:25;91848.59;;;0.80;89.07
8920;BME280;4495;42.644;23.274;2024-01-16T04:16:51;91863.03;;;0.76;88.26
8920;BME280;4495;42.644;23.274;2024-01-16T04:19:16;91869.06;;;0.80;87.99
8920;BME280;4495;42.644;23.274;2024-01-16T04:21:42;91870.88;;;0.80;88.85
8920;BME280;4495;42.644;23.274;2024-01-16T04:24:07;91870.69;;;0.76;87.54
8920;BME280;4495;42.644;23.274;2024-01-16T04:26:35;91874.28;;;0.75;88.57
8920;BME280;4495;42.644;23.274;2024-01-16T04:29:01;91881.75;;;0.72;87.96
8920;BME280;4495;42.644;23.274;2024-01-16T04:31:27;91878.75;;;0.70;87.92
8920;BME280;4495;42.644;23.274;2024-01-16T04:33:53;91884.13;;;0.68;87.04
8920;BME280;4495;42.644;23.274;2024-01-16T04:36:18;91875.78;;;0.49;87.74
8920;BME280;4495;42.644;23.274;2024-01-16T04:38:43;91876.00;;;0.19;88.31
8920;BME280;4495;42.644;23.274;2024-01-16T04:41:09;91887.41;;;-0.06;88.70
8920;BME280;4495;42.644;23.274;2024-01-16T04:43:34;91888.72;;;-0.08;89.18
8920;BME280;4495;42.644;23.274;2024-01-16T04:46:00;91904.22;;;-0.05;90.24
8920;BME280;4495;42.644;23.274;2024-01-16T04:48:25;91918.34;;;-0.07;87.45
8920;BME280;4495;42.644;23.274;2024-01-16T04:50:50;91915.09;;;-0.13;88.95
8920;BME280;4495;42.644;23.274;2024-01-16T04:53:16;91922.38;;;-0.20;89.12
8920;BME280;4495;42.644;23.274;2024-01-16T04:55:41;91937.75;;;-0.25;88.26
8920;BME280;4495;42.644;23.274;2024-01-16T04:58:06;91949.78;;;-0.26;89.59
8920;BME280;4495;42.644;23.274;2024-01-16T05:00:32;91943.50;;;-0.33;88.69
8920;BME280;4495;42.644;23.274;2024-01-16T05:02:58;91956.53;;;-0.35;89.70
8920;BME280;4495;42.644;23.274;2024-01-16T05:05:23;91958.28;;;-0.30;89.48
8920;BME280;4495;42.644;23.274;2024-01-16T05:07:49;91972.09;;;-0.31;89.17
8920;BME280;4495;42.644;23.274;2024-01-16T05:10:14;91973.03;;;-0.27;88.23
8920;BME280;4495;42.644;23.274;2024-01-16T05:12:40;91985.81;;;-0.27;89.86
8920;BME280;4495;42.644;23.274;2024-01-16T05:15:06;91992.72;;;-0.28;89.55
8920;BME280;4495;42.644;23.274;2024-01-16T05:17:32;92005.56;;;-0.33;87.81
8920;BME280;4495;42.644;23.274;2024-01-16T05:19:58;92008.88;;;-0.32;88.14
8920;BME280;4495;42.644;23.274;2024-01-16T05:22:23;92018.63;;;-0.34;87.61
8920;BME280;4495;42.644;23.274;2024-01-16T05:24:50;92038.31;;;-0.35;89.06
8920;BME280;4495;42.644;23.274;2024-01-16T05:27:16;92036.00;;;-0.36;88.15
8920;BME280;4495;42.644;23.274;2024-01-16T05:29:41;92052.66;;;-0.39;86.83
8920;BME280;4495;42.644;23.274;2024-01-16T05:32:06;92061.84;;;-0.38;87.24
8920;BME280;4495;42.644;23.274;2024-01-16T05:34:32;92056.03;;;-0.44;85.77
8920;BME280;4495;42.644;23.274;2024-01-16T05:36:57;92066.00;;;-0.47;85.60
8920;BME280;4495;42.644;23.274;2024-01-16T05:39:23;92066.63;;;-0.55;84.81
8920;BME280;4495;42.644;23.274;2024-01-16T05:41:48;92076.34;;;-0.57;84.20
8920;BME280;4495;42.644;23.274;2024-01-16T05:44:13;92090.38;;;-0.55;83.12
8920;BME280;4495;42.644;23.274;2024-01-16T05:46:39;92086.84;;;-0.59;83.69
8920;BME280;4495;42.644;23.274;2024-01-16T05:49:04;92101.13;;;-0.58;82.21
8920;BME280;4495;42.644;23.274;2024-01-16T05:51:29;92111.53;;;-0.49;83.51
8920;BME280;4495;42.644;23.274;2024-01-16T05:53:55;92115.91;;;-0.55;82.44
8920;BME280;4495;42.644;23.274;2024-01-16T05:56:21;92107.13;;;-0.44;81.48
8920;BME280;4495;42.644;23.274;2024-01-16T05:58:46;92119.00;;;-0.34;80.71
8920;BME280;4495;42.644;23.274;2024-01-16T06:01:11;92123.09;;;-0.33;79.02
8920;BME280;4495;42.644;23.274;2024-01-16T06:03:41;92119.72;;;-0.28;79.88
8920;BME280;4495;42.644;23.274;2024-01-16T06:06:07;92134.56;;;-0.30;79.91
8920;BME280;4495;42.644;23.274;2024-01-16T06:08:33;92132.09;;;-0.40;80.17
8920;BME280;4495;42.644;23.274;2024-01-16T06:10:59;92133.25;;;-0.28;79.65
8920;BME280;4495;42.644;23.274;2024-01-16T06:13:24;92144.75;;;-0.25;78.96
8920;BME280;4495;42.644;23.274;2024-01-16T06:15:50;92165.78;;;-0.33;78.37
8920;BME280;4495;42.644;23.274;2024-01-16T06:18:15;92165.81;;;-0.38;79.95
8920;BME280;4495;42.644;23.274;2024-01-16T06:20:41;92170.59;;;-0.56;78.88
8920;BME280;4495;42.644;23.274;2024-01-16T06:23:06;92174.41;;;-0.58;79.29
8920;BME280;4495;42.644;23.274;2024-01-16T06:25:31;92174.59;;;-0.50;79.09
8920;BME280;4495;42.644;23.274;2024-01-16T06:27:57;92176.91;;;-0.48;79.45
8920;BME280;4495;42.644;23.274;2024-01-16T06:30:22;92162.50;;;-0.39;77.90
8920;BME280;4495;42.644;23.274;2024-01-16T06:32:48;92179.75;;;-0.26;77.90
8920;BME280;4495;42.644;23.274;2024-01-16T06:35:15;92196.69;;;-0.06;72.96
8920;BME280;4495;42.644;23.274;2024-01-16T06:37:41;92195.59;;;0.01;70.19
8920;BME280;4495;42.644;23.274;2024-01-16T06:40:07;92224.81;;;-0.06;70.07
8920;BME280;4495;42.644;23.274;2024-01-16T06:42:32;92213.06;;;-0.07;71.30
8920;BME280;4495;42.644;23.274;2024-01-16T06:44:58;92225.34;;;-0.09;71.03
8920;BME280;4495;42.644;23.274;2024-01-16T06:47:24;92216.28;;;-0.25;72.04
8920;BME280;4495;42.644;23.274;2024-01-16T06:49:49;92231.75;;;-0.40;72.46
8920;BME280;4495;42.644;23.274;2024-01-16T06:52:15;92222.06;;;-0.44;70.78
8920;BME280;4495;42.644;23.274;2024-01-16T06:54:40;92244.84;;;-0.47;68.55
8920;BME280;4495;42.644;23.274;2024-01-16T06:57:06;92263.75;;;-0.48;72.12
8920;BME280;4495;42.644;23.274;2024-01-16T06:59:32;92264.00;;;-0.50;70.06
8920;BME280;4495;42.644;23.274;2024-01-16T07:01:57;92267.88;;;-0.52;72.46
8920;BME280;4495;42.644;23.274;2024-01-16T07:04:22;92266.66;;;-0.60;70.31
8920;BME280;4495;42.644;23.274;2024-01-16T07:06:48;92262.34;;;-0.65;71.30
8920;BME280;4495;42.644;23.274;2024-01-16T07:09:14;92272.78;;;-0.61;70.95
8920;BME280;4495;42.644;23.274;2024-01-16T07:11:41;92279.69;;;-0.61;70.42
8920;BME280;4495;42.644;23.274;2024-01-16T07:14:09;92282.47;;;-0.58;70.00
8920;BME280;4495;42.644;23.274;2024-01-16T07:16:34;92303.44;;;-0.61;71.75
8920;BME280;4495;42.644;23.274;2024-01-16T07:19:00;92325.19;;;-0.69;72.56
8920;BME280;4495;42.644;23.274;2024-01-16T07:21:25;92329.28;;;-0.73;71.04
8920;BME280;4495;42.644;23.274;2024-01-16T07:23:50;92332.09;;;-0.74;72.83
8920;BME280;4495;42.644;23.274;2024-01-16T07:26:16;92333.41;;;-0.72;72.34
8920;BME280;4495;42.644;23.274;2024-01-16T07:28:42;92341.28;;;-0.68;71.94
8920;BME280;4495;42.644;23.274;2024-01-16T07:31:07;92351.72;;;-0.65;72.51
8920;BME280;4495;42.644;23.274;2024-01-16T07:33:35;92357.34;;;-0.63;72.49
8920;BME280;4495;42.644;23.274;2024-01-16T07:36:01;92365.75;;;-0.62;71.34
8920;BME280;4495;42.644;23.274;2024-01-16T07:38:26;92359.63;;;-0.61;73.24
8920;BME280;4495;42.644;23.274;2024-01-16T07:40:52;92367.78;;;-0.54;71.10
8920;BME280;4495;42.644;23.274;2024-01-16T07:43:17;92361.88;;;-0.49;71.57
8920;BME280;4495;42.644;23.274;2024-01-16T07:45:43;92364.59;;;-0.40;71.62
8920;BME280;4495;42.644;23.274;2024-01-16T07:48:08;92372.06;;;-0.44;70.34
8920;BME280;4495;42.644;23.274;2024-01-16T07:50:33;92366.47;;;-0.51;72.06
8920;BME280;4495;42.644;23.274;2024-01-16T07:52:59;92387.41;;;-0.49;71.48
8920;BME280;4495;42.644;23.274;2024-01-16T07:55:27;92395.50;;;-0.37;71.79
8920;BME280;4495;42.644;23.274;2024-01-16T07:57:53;92401.41;;;-0.42;71.89
8920;BME280;4495;42.644;23.274;2024-01-16T08:00:19;92398.38;;;-0.49;70.82
8920;BME280;4495;42.644;23.274;2024-01-16T08:02:44;92413.28;;;-0.66;71.04
8920;BME280;4495;42.644;23.274;2024-01-16T08:05:10;92411.19;;;-0.59;71.35
8920;BME280;4495;42.644;23.274;2024-01-16T08:07:38;92411.41;;;-0.50;73.07
8920;BME280;4495;42.644;23.274;2024-01-16T08:10:04;92419.84;;;-0.45;70.72
8920;BME280;4495;42.644;23.274;2024-01-16T08:12:30;92418.53;;;-0.42;70.87
8920;BME280;4495;42.644;23.274;2024-01-16T08:14:55;92420.41;;;-0.63;72.15
8920;BME280;4495;42.644;23.274;2024-01-16T08:17:20;92432.19;;;-0.67;72.19
8920;BME280;4495;42.644;23.274;2024-01-16T08:19:49;92442.41;;;-0.72;70.27
8920;BME280;4495;42.644;23.274;2024-01-16T08:22:14;92456.22;;;-0.73;70.68
8920;BME280;4495;42.644;23.274;2024-01-16T08:24:39;92460.78;;;-0.65;72.57
8920;BME280;4495;42.644;23.274;2024-01-16T08:27:05;92460.25;;;-0.62;71.47
8920;BME280;4495;42.644;23.274;2024-01-16T08:29:30;92464.56;;;-0.52;71.26
8920;BME280;4495;42.644;23.274;2024-01-16T08:31:56;92478.16;;;-0.72;70.38
8920;BME280;4495;42.644;23.274;2024-01-16T08:34:21;92479.41;;;-0.59;70.04
8920;BME280;4495;42.644;23.274;2024-01-16T08:36:46;92480.66;;;-0.57;71.32
8920;BME280;4495;42.644;23.274;2024-01-16T08:39:12;92480.19;;;-0.64;71.47
8920;BME280;4495;42.644;23.274;2024-01-16T08:41:37;92493.22;;;-0.66;71.77
8920;BME280;4495;42.644;23.274;2024-01-16T08:44:03;92502.41;;;-0.70;70.83
8920;BME280;4495;42.644;23.274;2024-01-16T08:46:29;92506.25;;;-0.67;70.85
8920;BME280;4495;42.644;23.274;2024-01-16T08:48:54;92517.00;;;-0.75;69.47
8920;BME280;4495;42.644;23.274;2024-01-16T08:51:20;92519.03;;;-0.77;72.56
8920;BME280;4495;42.644;23.274;2024-01-16T08:53:45;92513.66;;;-0.66;72.41
8920;BME280;4495;42.644;23.274;2024-01-16T08:56:11;92518.78;;;-0.71;69.66
8920;BME280;4495;42.644;23.274;2024-01-16T08:58:38;92516.97;;;-0.70;72.52
8920;BME280;4495;42.644;23.274;2024-01-16T09:01:04;92521.06;;;-0.69;70.14
8920;BME280;4495;42.644;23.274;2024-01-16T09:03:33;92520.25;;;-0.54;70.20
8920;BME280;4495;42.644;23.274;2024-01-16T09:05:59;92524.84;;;-0.56;69.96
8920;BME280;4495;42.644;23.274;2024-01-16T09:08:26;92517.69;;;-0.49;69.74
8920;BME280;4495;42.644;23.274;2024-01-16T09:10:52;92528.19;;;-0.56;70.16
8920;BME280;4495;42.644;23.274;2024-01-16T09:13:18;92525.06;;;-0.37;70.88
8920;BME280;4495;42.644;23.274;2024-01-16T09:15:43;92536.84;;;-0.47;69.69
8920;BME280;4495;42.644;23.274;2024-01-16T09:18:08;92538.34;;;-0.35;69.18
8920;BME280;4495;42.644;23.274;2024-01-16T09:20:34;92529.38;;;-0.33;69.24
8920;BME280;4495;42.644;23.274;2024-01-16T09:22:59;92533.22;;;-0.30;69.08
8920;BME280;4495;42.644;23.274;2024-01-16T09:25:25;92547.56;;;-0.39;67.81
8920;BME280;4495;42.644;23.274;2024-01-16T09:27:52;92539.31;;;-0.26;69.28
8920;BME280;4495;42.644;23.274;2024-01-16T09:30:18;92546.19;;;-0.16;68.07
8920;BME280;4495;42.644;23.274;2024-01-16T09:32:44;92550.50;;;-0.12;70.09
8920;BME280;4495;42.644;23.274;2024-01-16T09:35:10;92542.31;;;-0.09;68.17
8920;BME280;4495;42.644;23.274;2024-01-16T09:37:36;92545.66;;;-0.08;67.62
8920;BME280;4495;42.644;23.274;2024-01-16T09:40:01;92534.31;;;0.08;67.00
8920;BME280;4495;42.644;23.274;2024-01-16T09:42:30;92538.78;;;-0.18;65.33
8920;BME280;4495;42.644;23.274;2024-01-16T09:44:56;92541.84;;;-0.21;66.81
8920;BME280;4495;42.644;23.274;2024-01-16T09:47:24;92546.97;;;-0.21;66.95
8920;BME280;4495;42.644;23.274;2024-01-16T09:49:49;92544.06;;;0.01;67.95
8920;BME280;4495;42.644;23.274;2024-01-16T09:52:15;92546.47;;;0.27;66.74
8920;BME280;4495;42.644;23.274;2024-01-16T09:54:40;92554.94;;;0.27;66.44
8920;BME280;4495;42.644;23.274;2024-01-16T09:57:07;92557.09;;;0.05;66.84
8920;BME280;4495;42.644;23.274;2024-01-16T09:59:35;92537.81;;;0.23;66.30
8920;BME280;4495;42.644;23.274;2024-01-16T10:02:02;92535.22;;;0.28;66.80
8920;BME280;4495;42.644;23.274;2024-01-16T10:04:32;92538.16;;;0.50;65.94
8920;BME280;4495;42.644;23.274;2024-01-16T10:07:01;92535.94;;;0.33;65.22
8920;BME280;4495;42.644;23.274;2024-01-16T10:09:27;92539.47;;;0.43;65.58
8920;BME280;4495;42.644;23.274;2024-01-16T10:11:53;92537.41;;;0.50;63.80
8920;BME280;4495;42.644;23.274;2024-01-16T10:14:19;92543.63;;;0.33;65.04
8920;BME280;4495;42.644;23.274;2024-01-16T10:17:01;92539.97;;;0.50;65.25
8920;BME280;4495;42.644;23.274;2024-01-16T10:19:51;92557.28;;;0.58;63.88
8920;BME280;4495;42.644;23.274;2024-01-16T10:22:24;92560.34;;;0.60;63.83
8920;BME280;4495;42.644;23.274;2024-01-16T10:27:28;92546.91;;;0.78;63.30
8920;BME280;4495;42.644;23.274;2024-01-16T10:29:56;92548.31;;;0.95;63.29
8920;BME280;4495;42.644;23.274;2024-01-16T10:32:42;92553.00;;;0.88;62.98
8920;BME280;4495;42.644;23.274;2024-01-16T10:40:09;92541.31;;;1.35;61.97
8920;BME280;4495;42.644;23.274;2024-01-16T10:42:36;92544.78;;;1.20;60.16
8920;BME280;4495;42.644;23.274;2024-01-16T10:45:02;92555.78;;;1.20;61.99
8920;BME280;4495;42.644;23.274;2024-01-16T10:47:28;92552.13;;;0.97;60.61
8920;BME280;4495;42.644;23.274;2024-01-16T10:49:54;92553.31;;;1.39;60.46
8920;BME280;4495;42.644;23.274;2024-01-16T10:52:26;92546.03;;;1.22;61.54
8920;BME280;4495;42.644;23.274;2024-01-16T10:54:53;92541.03;;;1.36;61.55
8920;BME280;4495;42.644;23.274;2024-01-16T10:57:24;92539.69;;;1.44;60.81
8920;BME280;4495;42.644;23.274;2024-01-16T11:00:02;92539.41;;;1.70;59.71
8920;BME280;4495;42.644;23.274;2024-01-16T11:02:43;92549.47;;;1.61;59.82
8920;BME280;4495;42.644;23.274;2024-01-16T11:05:11;92553.94;;;1.50;60.49
8920;BME280;4495;42.644;23.274;2024-01-16T11:07:37;92552.94;;;1.51;60.56
8920;BME280;4495;42.644;23.274;2024-01-16T11:10:05;92549.16;;;1.67;59.19
8920;BME280;4495;42.644;23.274;2024-01-16T11:12:32;92554.19;;;1.54;59.83
8920;BME280;4495;42.644;23.274;2024-01-16T11:15:00;92563.66;;;1.53;59.14
8920;BME280;4495;42.644;23.274;2024-01-16T11:17:33;92562.00;;;1.38;57.35
8920;BME280;4495;42.644;23.274;2024-01-16T11:20:00;92555.16;;;1.58;58.35
8920;BME280;4495;42.644;23.274;2024-01-16T11:22:27;92559.03;;;1.55;57.42
8920;BME280;4495;42.644;23.274;2024-01-16T11:27:38;92560.28;;;1.58;59.43
8920;BME280;4495;42.644;23.274;2024-01-16T11:30:06;92560.56;;;1.56;57.52
8920;BME280;4495;42.644;23.274;2024-01-16T11:32:39;92567.25;;;1.52;59.42
8920;BME280;4495;42.644;23.274;2024-01-16T11:35:07;92565.69;;;1.56;57.87
8920;BME280;4495;42.644;23.274;2024-01-16T11:37:33;92575.88;;;1.61;59.56
8920;BME280;4495;42.644;23.274;2024-01-16T11:42:50;92573.38;;;1.80;59.65
8920;BME280;4495;42.644;23.274;2024-01-16T11:48:08;92572.69;;;1.45;61.54
8920;BME280;4495;42.644;23.274;2024-01-16T11:50:35;92596.56;;;1.17;62.90
8920;BME280;4495;42.644;23.274;2024-01-16T11:53:00;92592.50;;;1.40;61.77
8920;BME280;4495;42.644;23.274;2024-01-16T11:55:33;92596.44;;;1.27;61.83
8920;BME280;4495;42.644;23.274;2024-01-16T12:00:50;92589.38;;;1.14;64.92
8920;BME280;4495;42.644;23.274;2024-01-16T12:03:18;92593.63;;;1.29;64.68
8920;BME280;4495;42.644;23.274;2024-01-16T12:05:55;92609.81;;;1.24;64.34
8920;BME280;4495;42.644;23.274;2024-01-16T12:08:21;92612.72;;;1.12;65.12
8920;BME280;4495;42.644;23.274;2024-01-16T12:10:47;92618.97;;;0.96;64.22
8920;BME280;4495;42.644;23.274;2024-01-16T12:13:15;92622.22;;;0.72;66.69
8920;BME280;4495;42.644;23.274;2024-01-16T12:15:41;92619.22;;;0.99;65.72
8920;BME280;4495;42.644;23.274;2024-01-16T12:18:08;92618.13;;;0.71;65.53
8920;BME280;4495;42.644;23.274;2024-01-16T12:20:35;92608.38;;;0.73;65.41
8920;BME280;4495;42.644;23.274;2024-01-16T12:23:04;92604.72;;;0.85;66.30
8920;BME280;4495;42.644;23.274;2024-01-16T12:25:32;92610.44;;;0.71;66.00
8920;BME280;4495;42.644;23.274;2024-01-16T12:28:04;92610.91;;;0.78;66.33
8920;BME280;4495;42.644;23.274;2024-01-16T12:30:33;92626.78;;;0.75;65.83
8920;BME280;4495;42.644;23.274;2024-01-16T12:35:36;92606.13;;;0.67;66.49
8920;BME280;4495;42.644;23.274;2024-01-16T12:38:04;92613.97;;;0.80;66.25
8920;BME280;4495;42.644;23.274;2024-01-16T12:41:08;92623.31;;;0.61;65.62
8920;BME280;4495;42.644;23.274;2024-01-16T12:43:27;92632.78;;;0.55;66.77
8920;BME280;4495;42.644;23.274;2024-01-16T12:45:56;92638.16;;;0.54;67.23
8920;BME280;4495;42.644;23.274;2024-01-16T12:48:23;92622.53;;;0.60;67.80
8920;BME280;4495;42.644;23.274;2024-01-16T12:50:49;92632.88;;;0.45;66.45
8920;BME280;4495;42.644;23.274;2024-01-16T12:53:14;92625.69;;;0.47;66.46
8920;BME280;4495;42.644;23.274;2024-01-16T12:55:42;92617.41;;;0.60;66.42
8920;BME280;4495;42.644;23.274;2024-01-16T12:58:21;92616.47;;;0.91;65.79
8920;BME280;4495;42.644;23.274;2024-01-16T13:00:52;92630.31;;;0.85;65.52
8920;BME280;4495;42.644;23.274;2024-01-16T13:03:19;92630.16;;;1.05;64.22
8920;BME280;4495;42.644;23.274;2024-01-16T13:05:46;92623.72;;;1.13;64.69
8920;BME280;4495;42.644;23.274;2024-01-16T13:08:19;92628.13;;;1.07;63.88
8920;BME280;4495;42.644;23.274;2024-01-16T13:10:46;92637.91;;;1.00;64.74
8920;BME280;4495;42.644;23.274;2024-01-16T13:13:16;92639.34;;;1.11;64.25
8920;BME280;4495;42.644;23.274;2024-01-16T13:15:43;92645.09;;;0.98;63.44
8920;BME280;4495;42.644;23.274;2024-01-16T13:18:18;92655.41;;;0.82;66.03
8920;BME280;4495;42.644;23.274;2024-01-16T13:20:45;92655.28;;;0.64;66.50
8920;BME280;4495;42.644;23.274;2024-01-16T13:23:12;92654.34;;;0.44;66.88
8920;BME280;4495;42.644;23.274;2024-01-16T13:25:39;92662.88;;;0.29;67.02
8920;BME280;4495;42.644;23.274;2024-01-16T13:28:04;92661.00;;;0.45;64.63
8920;BME280;4495;42.644;23.274;2024-01-16T13:30:32;92655.59;;;0.47;65.04
8920;BME280;4495;42.644;23.274;2024-01-16T13:32:58;92654.06;;;0.51;65.50
8920;BME280;4495;42.644;23.274;2024-01-16T13:35:23;92644.88;;;0.45;65.93
8920;BME280;4495;42.644;23.274;2024-01-16T13:37:49;92655.97;;;0.19;67.85